createdAt,value
2022-11-29T00:00:32.478Z,13.02
2022-11-29T00:03:57.760Z,14.65
2022-11-29T00:07:23.683Z,13.38
2022-11-29T00:10:51.422Z,14.90
2022-11-29T00:14:18.909Z,14.82
2022-11-29T00:17:44.209Z,15.82
2022-11-29T00:21:09.688Z,14.02
2022-11-29T00:24:34.680Z,14.15
2022-11-29T00:28:00.036Z,11.13
2022-11-29T00:31:27.464Z,13.55
2022-11-29T00:34:52.469Z,12.20
2022-11-29T00:38:17.450Z,14.40
2022-11-29T00:41:42.501Z,13.93
2022-11-29T00:45:08.005Z,14.52
2022-11-29T00:48:34.706Z,15.50
2022-11-29T00:51:59.827Z,14.13
2022-11-29T00:55:24.879Z,13.82
2022-11-29T00:58:49.886Z,13.27
2022-11-29T01:02:15.009Z,13.75
2022-11-29T01:05:41.490Z,12.68
2022-11-29T01:09:06.450Z,17.30
2022-11-29T01:12:34.506Z,14.10
2022-11-29T01:15:59.465Z,16.20
2022-11-29T01:19:24.556Z,18.95
2022-11-29T01:22:50.875Z,14.48
2022-11-29T01:26:16.532Z,15.35
2022-11-29T01:29:41.675Z,16.98
2022-11-29T01:33:06.643Z,18.50
2022-11-29T01:36:31.711Z,18.60
2022-11-29T01:39:58.583Z,21.85
2022-11-29T01:43:23.867Z,24.60
2022-11-29T01:46:49.139Z,22.23
2022-11-29T01:50:16.289Z,20.45
2022-11-29T01:53:41.491Z,17.48
2022-11-29T01:57:09.296Z,18.48
2022-11-29T02:00:36.104Z,14.73
2022-11-29T02:04:04.275Z,15.90
2022-11-29T02:07:29.307Z,16.85
2022-11-29T02:11:05.797Z,15.40
2022-11-29T02:14:43.388Z,16.35
2022-11-29T02:18:17.280Z,14.07
2022-11-29T02:21:56.969Z,16.70
2022-11-29T02:25:41.649Z,14.63
2022-11-29T02:29:57.295Z,18.75
2022-11-29T02:33:49.557Z,19.42
2022-11-29T02:37:37.829Z,19.88
2022-11-29T02:41:17.915Z,18.55
2022-11-29T02:45:07.234Z,24.25
2022-11-29T02:48:48.817Z,21.88
2022-11-29T02:52:25.090Z,19.27
2022-11-29T02:55:56.694Z,24.67
2022-11-29T02:59:32.364Z,20.55
2022-11-29T03:03:07.985Z,22.45
2022-11-29T03:06:41.686Z,22.70
2022-11-29T03:10:15.835Z,20.98
2022-11-29T03:13:49.512Z,19.50
2022-11-29T03:17:27.676Z,23.38
2022-11-29T03:21:07.428Z,26.27
2022-11-29T03:24:37.135Z,27.73
2022-11-29T03:28:10.976Z,30.55
2022-11-29T03:31:40.361Z,27.35
2022-11-29T03:35:17.489Z,33.67
2022-11-29T03:38:46.654Z,24.10
2022-11-29T03:42:17.789Z,26.10
2022-11-29T03:45:51.785Z,28.02
2022-11-29T03:49:22.461Z,29.45
2022-11-29T03:52:54.459Z,29.13
2022-11-29T03:56:29.975Z,31.75
2022-11-29T04:00:05.285Z,35.97
2022-11-29T04:03:59.444Z,34.85
2022-11-29T04:07:44.451Z,30.73
2022-11-29T04:11:28.400Z,39.53
2022-11-29T04:15:15.781Z,31.88
2022-11-29T04:19:12.567Z,30.45
2022-11-29T04:23:06.120Z,38.00
2022-11-29T04:26:59.353Z,36.25
2022-11-29T04:30:52.843Z,39.65
2022-11-29T04:34:43.193Z,37.47
2022-11-29T04:38:31.801Z,35.92
2022-11-29T04:42:29.593Z,31.40
2022-11-29T04:46:17.570Z,37.80
2022-11-29T04:50:04.937Z,35.80
2022-11-29T04:53:46.367Z,32.13
2022-11-29T04:57:22.601Z,36.10
2022-11-29T05:00:56.057Z,39.20
2022-11-29T05:04:29.959Z,36.20
2022-11-29T05:08:10.010Z,40.85
2022-11-29T05:11:44.308Z,36.40
2022-11-29T05:15:37.774Z,39.78
2022-11-29T05:19:17.936Z,43.95
2022-11-29T05:22:52.647Z,40.20
2022-11-29T05:26:31.129Z,39.17
2022-11-29T05:30:02.758Z,48.80
2022-11-29T05:33:42.823Z,49.30
2022-11-29T05:37:18.634Z,42.10
2022-11-29T05:40:59.737Z,38.97
2022-11-29T05:44:36.585Z,45.38
2022-11-29T05:48:08.950Z,45.92
2022-11-29T05:51:41.762Z,50.85
2022-11-29T05:55:19.246Z,75.90
2022-11-29T05:58:50.755Z,75.03
2022-11-29T06:02:28.102Z,64.75
2022-11-29T06:06:13.726Z,58.92
2022-11-29T06:09:45.477Z,51.03
2022-11-29T06:13:18.501Z,51.03
2022-11-29T06:17:02.141Z,47.05
2022-11-29T06:20:49.661Z,51.25
2022-11-29T06:24:43.955Z,54.33
2022-11-29T06:28:21.980Z,50.03
2022-11-29T06:31:55.409Z,53.08
2022-11-29T06:35:32.078Z,45.20
2022-11-29T06:38:59.599Z,44.42
2022-11-29T06:42:24.822Z,48.45
2022-11-29T06:45:51.416Z,46.72
2022-11-29T06:49:23.846Z,40.97
2022-11-29T06:53:00.156Z,42.08
2022-11-29T06:56:34.149Z,43.55
2022-11-29T07:00:08.813Z,44.70
2022-11-29T07:03:48.388Z,43.13
2022-11-29T07:07:18.516Z,40.05
2022-11-29T07:10:46.007Z,41.92
2022-11-29T07:14:12.084Z,42.80
2022-11-29T07:17:45.019Z,44.40
2022-11-29T07:21:15.471Z,41.55
2022-11-29T07:24:52.831Z,37.47
2022-11-29T07:28:25.130Z,41.53
2022-11-29T07:32:02.919Z,46.70
2022-11-29T07:35:33.935Z,52.43
2022-11-29T07:39:13.710Z,50.67
2022-11-29T07:42:52.031Z,47.70
2022-11-29T07:46:20.028Z,50.60
2022-11-29T07:49:45.020Z,45.22
2022-11-29T07:53:15.156Z,46.92
2022-11-29T07:56:41.556Z,48.75
2022-11-29T08:00:07.158Z,50.72
2022-11-29T08:03:36.451Z,50.60
2022-11-29T08:07:01.565Z,45.80
2022-11-29T08:10:26.513Z,42.60
2022-11-29T08:13:55.876Z,37.58
2022-11-29T08:17:20.809Z,45.00
2022-11-29T08:20:45.755Z,40.75
2022-11-29T08:24:11.348Z,44.97
2022-11-29T08:27:36.803Z,46.65
2022-11-29T08:31:04.283Z,52.60
2022-11-29T08:34:29.276Z,47.83
2022-11-29T08:37:54.392Z,52.55
2022-11-29T08:41:19.364Z,42.55
2022-11-29T08:44:44.733Z,47.53
2022-11-29T08:48:13.128Z,50.72
2022-11-29T08:51:38.128Z,46.15
2022-11-29T08:55:03.542Z,44.35
2022-11-29T08:58:29.761Z,42.15
2022-11-29T09:01:54.767Z,51.15
2022-11-29T09:05:21.205Z,36.80
2022-11-29T09:08:46.180Z,41.85
2022-11-29T09:12:12.237Z,37.10
2022-11-29T09:15:37.262Z,42.88
2022-11-29T09:19:02.921Z,42.10
2022-11-29T09:22:29.985Z,40.90
2022-11-29T09:25:54.914Z,39.90
2022-11-29T09:29:20.016Z,44.53
2022-11-29T09:32:44.969Z,37.83
2022-11-29T09:36:10.810Z,41.47
2022-11-29T09:39:37.550Z,35.33
2022-11-29T09:43:17.539Z,33.92
2022-11-29T09:46:58.398Z,39.30
2022-11-29T09:50:33.637Z,33.55
2022-11-29T09:54:15.035Z,31.88
2022-11-29T09:57:41.533Z,29.10
2022-11-29T10:01:19.192Z,28.08
2022-11-29T10:04:49.547Z,31.60
2022-11-29T10:08:22.054Z,31.33
2022-11-29T10:11:57.990Z,33.03
2022-11-29T10:15:27.038Z,34.25
2022-11-29T10:18:55.938Z,31.58
2022-11-29T10:22:27.160Z,31.77
2022-11-29T10:25:57.898Z,34.72
2022-11-29T10:29:24.551Z,32.63
2022-11-29T10:32:51.730Z,31.90
2022-11-29T10:36:22.018Z,33.65
2022-11-29T10:39:48.734Z,33.53
2022-11-29T10:43:16.246Z,35.00
2022-11-29T10:46:42.165Z,30.27
2022-11-29T10:50:13.050Z,32.40
2022-11-29T10:53:37.995Z,28.30
2022-11-29T10:57:12.172Z,31.88
2022-11-29T11:00:53.250Z,37.63
2022-11-29T11:04:28.846Z,34.38
2022-11-29T11:07:56.838Z,35.38
2022-11-29T11:11:26.280Z,39.95
2022-11-29T11:15:26.619Z,35.65
2022-11-29T11:18:55.464Z,33.75
2022-11-29T11:22:23.671Z,32.20
2022-11-29T11:25:56.448Z,35.03
2022-11-29T11:29:24.199Z,27.20
2022-11-29T11:33:07.955Z,33.25
2022-11-29T11:36:33.257Z,32.72
2022-11-29T11:40:18.594Z,32.28
2022-11-29T11:43:49.612Z,36.70
2022-11-29T11:47:17.720Z,32.40
2022-11-29T11:50:50.622Z,30.77
2022-11-29T11:54:20.589Z,31.50
2022-11-29T11:57:45.729Z,27.65
2022-11-29T12:01:36.790Z,32.50
2022-11-29T12:05:06.917Z,34.03
2022-11-29T12:08:35.909Z,31.20
2022-11-29T12:12:10.419Z,32.65
2022-11-29T12:15:40.439Z,36.45
2022-11-29T12:19:16.541Z,33.30
2022-11-29T12:22:49.032Z,31.75
2022-11-29T12:26:54.871Z,35.63
2022-11-29T12:30:11.921Z,33.13
2022-11-29T12:33:49.525Z,33.83
2022-11-29T12:37:27.462Z,34.90
2022-11-29T12:41:05.368Z,33.70
2022-11-29T12:44:42.951Z,40.47
2022-11-29T12:48:21.163Z,37.53
2022-11-29T12:51:57.385Z,42.15
2022-11-29T12:55:37.585Z,40.28
2022-11-29T12:59:16.952Z,32.47
2022-11-29T13:02:58.587Z,40.83
2022-11-29T13:06:34.115Z,37.05
2022-11-29T13:10:24.292Z,38.97
2022-11-29T13:14:03.642Z,35.00
2022-11-29T13:17:46.431Z,34.15
2022-11-29T13:21:18.258Z,34.45
2022-11-29T13:24:52.571Z,33.83
2022-11-29T13:28:22.632Z,37.40
2022-11-29T13:31:48.595Z,31.55
2022-11-29T13:35:19.379Z,34.80
2022-11-29T13:38:54.667Z,42.47
2022-11-29T13:42:28.994Z,39.53
2022-11-29T13:46:02.954Z,36.15
2022-11-29T13:49:51.160Z,31.83
2022-11-29T13:53:25.535Z,40.22
2022-11-29T13:57:00.786Z,36.60
2022-11-29T14:00:33.423Z,36.60
2022-11-29T14:04:35.024Z,32.45
2022-11-29T14:08:20.113Z,35.28
2022-11-29T14:11:47.482Z,31.92
2022-11-29T14:15:22.333Z,30.77
2022-11-29T14:19:02.109Z,27.35
2022-11-29T14:23:13.988Z,28.95
2022-11-29T14:26:39.463Z,32.33
2022-11-29T14:30:39.346Z,26.23
2022-11-29T14:34:20.815Z,31.40
2022-11-29T14:37:53.216Z,34.00
2022-11-29T14:41:33.034Z,35.67
2022-11-29T14:45:21.517Z,30.58
2022-11-29T14:48:57.276Z,27.98
2022-11-29T14:52:28.026Z,33.95
2022-11-29T14:56:12.879Z,32.08
2022-11-29T14:59:40.275Z,31.30
2022-11-29T15:03:10.887Z,32.78
2022-11-29T15:06:44.383Z,26.08
2022-11-29T15:10:17.580Z,29.38
2022-11-29T15:13:49.364Z,27.98
2022-11-29T15:17:26.980Z,24.55
2022-11-29T15:21:11.972Z,31.42
2022-11-29T15:24:50.894Z,24.67
2022-11-29T15:28:20.205Z,29.42
2022-11-29T15:31:49.702Z,23.40
2022-11-29T15:35:19.551Z,33.88
2022-11-29T15:38:46.378Z,28.27
2022-11-29T15:42:17.020Z,32.25
2022-11-29T15:45:46.743Z,27.67
2022-11-29T15:49:17.869Z,25.35
2022-11-29T15:52:46.279Z,28.38
2022-11-29T15:56:15.181Z,33.95
2022-11-29T15:59:43.573Z,32.58
2022-11-29T16:03:18.352Z,31.48
2022-11-29T16:06:49.406Z,30.38
2022-11-29T16:10:18.065Z,32.35
2022-11-29T16:14:04.478Z,30.60
2022-11-29T16:17:31.427Z,32.45
2022-11-29T16:21:05.705Z,29.25
2022-11-29T16:24:33.283Z,34.47
2022-11-29T16:27:58.767Z,31.70
2022-11-29T16:31:31.060Z,27.17
2022-11-29T16:34:57.004Z,33.90
2022-11-29T16:38:23.347Z,33.72
2022-11-29T16:42:11.756Z,29.30
2022-11-29T16:46:24.226Z,25.95
2022-11-29T16:50:06.971Z,27.23
2022-11-29T16:53:33.023Z,30.80
2022-11-29T16:57:05.010Z,27.38
2022-11-29T17:00:31.304Z,26.67
2022-11-29T17:03:57.026Z,23.60
2022-11-29T17:07:25.977Z,28.98
2022-11-29T17:10:53.897Z,23.58
2022-11-29T17:14:20.247Z,30.17
2022-11-29T17:17:45.275Z,26.52
2022-11-29T17:21:16.952Z,25.45
2022-11-29T17:24:46.421Z,28.33
2022-11-29T17:28:13.157Z,22.45
2022-11-29T17:31:40.124Z,20.52
2022-11-29T17:35:05.540Z,20.60
2022-11-29T17:38:30.584Z,20.17
2022-11-29T17:41:55.500Z,23.17
2022-11-29T17:45:20.430Z,20.95
2022-11-29T17:48:46.856Z,24.50
2022-11-29T17:52:12.308Z,23.40
2022-11-29T17:55:37.289Z,20.45
2022-11-29T17:59:03.159Z,28.67
2022-11-29T18:02:29.203Z,18.98
2022-11-29T18:05:57.504Z,22.75
2022-11-29T18:09:22.452Z,19.42
2022-11-29T18:12:50.309Z,23.05
2022-11-29T18:16:16.432Z,21.40
2022-11-29T18:19:41.781Z,21.85
2022-11-29T18:23:08.319Z,20.73
2022-11-29T18:26:33.994Z,23.90
2022-11-29T18:29:59.429Z,20.98
2022-11-29T18:33:24.486Z,23.23
2022-11-29T18:36:49.637Z,21.45
2022-11-29T18:40:16.603Z,22.90
2022-11-29T18:43:41.785Z,22.58
2022-11-29T18:47:07.659Z,22.90
2022-11-29T18:50:35.665Z,26.40
2022-11-29T18:54:00.881Z,28.07
2022-11-29T18:57:28.441Z,23.05
2022-11-29T19:00:53.543Z,26.90
2022-11-29T19:04:19.395Z,28.38
2022-11-29T19:07:44.680Z,26.98
2022-11-29T19:11:11.294Z,28.95
2022-11-29T19:14:37.837Z,22.90
2022-11-29T19:18:02.870Z,25.85
2022-11-29T19:21:29.189Z,26.95
2022-11-29T19:24:55.095Z,26.88
2022-11-29T19:28:20.087Z,20.05
2022-11-29T19:31:52.926Z,22.75
2022-11-29T19:35:17.890Z,23.60
2022-11-29T19:38:44.399Z,26.00
2022-11-29T19:42:13.094Z,30.27
2022-11-29T19:45:38.479Z,21.80
2022-11-29T19:49:05.794Z,24.55
2022-11-29T19:52:31.095Z,28.17
2022-11-29T19:55:56.314Z,26.60
2022-11-29T19:59:21.275Z,25.45
2022-11-29T20:02:46.283Z,25.42
2022-11-29T20:06:12.851Z,29.15
2022-11-29T20:09:38.047Z,25.48
2022-11-29T20:13:03.136Z,21.60
2022-11-29T20:16:28.909Z,29.75
2022-11-29T20:19:54.744Z,25.80
2022-11-29T20:23:21.088Z,27.15
2022-11-29T20:26:47.146Z,31.45
2022-11-29T20:30:13.152Z,29.00
2022-11-29T20:33:38.489Z,22.45
2022-11-29T20:37:23.301Z,29.00
2022-11-29T20:41:02.280Z,25.02
2022-11-29T20:44:36.087Z,29.75
2022-11-29T20:48:10.842Z,26.83
2022-11-29T20:51:39.399Z,24.88
2022-11-29T20:55:06.123Z,24.77
2022-11-29T20:59:08.968Z,29.48
2022-11-29T21:01:35.411Z,37.17
2022-11-29T21:04:01.937Z,26.27
2022-11-29T21:06:28.299Z,27.90
2022-11-29T21:08:54.628Z,26.50
2022-11-29T21:11:21.257Z,27.23
2022-11-29T21:13:48.016Z,27.35
2022-11-29T21:16:16.173Z,30.02
2022-11-29T21:18:42.739Z,30.55
2022-11-29T21:21:14.818Z,35.17
2022-11-29T21:23:45.203Z,27.60
2022-11-29T21:26:15.048Z,26.23
2022-11-29T21:28:44.080Z,30.98
2022-11-29T21:31:11.267Z,33.00
2022-11-29T21:33:40.996Z,27.00
2022-11-29T21:36:08.944Z,26.88
2022-11-29T21:38:53.933Z,31.70
2022-11-29T21:44:06.149Z,29.15
2022-11-29T21:46:33.444Z,28.65
2022-11-29T21:49:01.124Z,28.02
2022-11-29T21:51:27.449Z,28.90
2022-11-29T21:53:53.717Z,34.70
2022-11-29T21:56:20.031Z,28.88
2022-11-29T21:58:46.370Z,29.73
2022-11-29T22:01:13.581Z,29.30
2022-11-29T22:03:40.653Z,29.65
2022-11-29T22:06:09.493Z,30.65
2022-11-29T22:08:35.988Z,35.72
2022-11-29T22:11:03.182Z,29.98
2022-11-29T22:13:29.490Z,35.83
2022-11-29T22:16:03.032Z,31.83
2022-11-29T22:18:29.362Z,33.80
2022-11-29T22:20:55.723Z,31.30
2022-11-29T22:23:23.474Z,26.33
2022-11-29T22:25:49.789Z,24.45
2022-11-29T22:28:16.079Z,32.53
2022-11-29T22:30:42.410Z,37.03
2022-11-29T22:33:13.245Z,29.58
2022-11-29T22:35:42.243Z,29.42
2022-11-29T22:38:08.522Z,30.27
2022-11-29T22:40:36.195Z,33.65
2022-11-29T22:43:02.520Z,29.85
2022-11-29T22:45:28.800Z,36.58
2022-11-29T22:47:55.101Z,26.00
2022-11-29T22:50:21.397Z,30.75
2022-11-29T22:52:47.689Z,27.42
2022-11-29T22:55:14.009Z,35.88
2022-11-29T22:57:41.693Z,29.95
2022-11-29T23:00:08.789Z,32.78
2022-11-29T23:02:35.151Z,31.20
2022-11-29T23:05:01.639Z,30.77
2022-11-29T23:07:28.045Z,36.28
2022-11-29T23:09:54.390Z,33.10
2022-11-29T23:12:20.724Z,32.90
2022-11-29T23:14:54.533Z,32.25
2022-11-29T23:17:22.549Z,38.40
2022-11-29T23:19:48.807Z,35.72
2022-11-29T23:22:15.091Z,36.22
2022-11-29T23:24:41.375Z,43.33
2022-11-29T23:27:07.687Z,31.17
2022-11-29T23:29:34.075Z,36.75
2022-11-29T23:32:01.788Z,33.35
2022-11-29T23:34:28.263Z,34.20
2022-11-29T23:36:54.578Z,33.95
2022-11-29T23:39:20.864Z,32.85
2022-11-29T23:41:47.165Z,42.78
2022-11-29T23:44:13.533Z,36.80
2022-11-29T23:46:39.835Z,35.38
2022-11-29T23:49:07.468Z,35.60
2022-11-29T23:51:33.844Z,33.47
2022-11-29T23:54:00.137Z,35.97
2022-11-29T23:56:26.522Z,26.98
2022-11-29T23:58:52.832Z,31.42
